createdAt,value
2018-07-09T00:00:47.453Z,3.20
2018-07-09T00:03:15.529Z,3.03
2018-07-09T00:05:44.275Z,3.17
2018-07-09T00:08:12.652Z,2.90
2018-07-09T00:10:46.079Z,3.77
2018-07-09T00:13:13.367Z,3.30
2018-07-09T00:15:40.761Z,3.03
2018-07-09T00:18:08.224Z,3.00
2018-07-09T00:20:35.551Z,3.53
2018-07-09T00:23:02.939Z,3.07
2018-07-09T00:25:30.519Z,3.50
2018-07-09T00:27:57.842Z,3.43
2018-07-09T00:30:25.304Z,2.90
2018-07-09T00:32:52.776Z,3.40
2018-07-09T00:35:20.071Z,3.13
2018-07-09T00:37:47.397Z,3.10
2018-07-09T00:40:14.726Z,3.00
2018-07-09T00:42:42.282Z,3.30
2018-07-09T00:45:09.611Z,3.07
2018-07-09T00:47:36.975Z,3.60
2018-07-09T00:50:04.391Z,3.10
2018-07-09T00:52:31.724Z,3.80
2018-07-09T00:54:59.033Z,3.73
2018-07-09T00:57:26.399Z,3.00
2018-07-09T00:59:53.986Z,4.43
2018-07-09T01:02:21.295Z,3.67
2018-07-09T01:04:48.694Z,3.47
2018-07-09T01:07:16.118Z,3.67
2018-07-09T01:09:43.545Z,3.83
2018-07-09T01:12:12.064Z,3.17
2018-07-09T01:14:39.845Z,3.70
2018-07-09T01:17:07.390Z,4.00
2018-07-09T01:19:34.733Z,4.30
2018-07-09T01:22:02.103Z,4.50
2018-07-09T01:24:29.462Z,3.20
2018-07-09T01:26:56.779Z,3.40
2018-07-09T01:29:24.126Z,4.20
2018-07-09T01:31:51.512Z,3.57
2018-07-09T01:34:18.994Z,4.07
2018-07-09T01:36:46.304Z,3.70
2018-07-09T01:39:13.904Z,3.60
2018-07-09T01:41:41.356Z,3.80
2018-07-09T01:44:08.712Z,3.90
2018-07-09T01:46:36.167Z,3.97
2018-07-09T01:49:03.559Z,5.13
2018-07-09T01:51:31.130Z,3.73
2018-07-09T01:53:58.422Z,4.00
2018-07-09T01:56:25.944Z,3.77
2018-07-09T01:58:53.241Z,3.93
2018-07-09T02:01:20.593Z,4.20
2018-07-09T02:03:48.012Z,3.87
2018-07-09T02:06:15.376Z,3.83
2018-07-09T02:08:42.780Z,4.73
2018-07-09T02:11:10.097Z,4.00
2018-07-09T02:13:37.526Z,3.83
2018-07-09T02:16:04.999Z,3.97
2018-07-09T02:18:32.388Z,4.00
2018-07-09T02:20:59.811Z,4.50
2018-07-09T02:23:27.388Z,4.17
2018-07-09T02:25:54.824Z,4.40
2018-07-09T02:28:22.189Z,4.47
2018-07-09T02:30:49.862Z,4.03
2018-07-09T02:33:17.238Z,4.67
2018-07-09T02:35:44.996Z,4.13
2018-07-09T02:38:12.619Z,4.73
2018-07-09T02:40:39.983Z,4.90
2018-07-09T02:43:07.342Z,5.27
2018-07-09T02:45:35.127Z,4.80
2018-07-09T02:48:02.485Z,5.20
2018-07-09T02:50:29.831Z,5.20
2018-07-09T02:52:57.143Z,5.00
2018-07-09T02:55:24.559Z,5.10
2018-07-09T02:57:52.099Z,4.73
2018-07-09T03:00:19.556Z,4.20
2018-07-09T03:02:47.203Z,5.50
2018-07-09T03:05:14.551Z,4.87
2018-07-09T03:07:42.134Z,4.90
2018-07-09T03:10:09.588Z,4.57
2018-07-09T03:12:36.899Z,4.87
2018-07-09T03:15:04.496Z,5.40
2018-07-09T03:17:31.936Z,4.83
2018-07-09T03:19:59.366Z,4.80
2018-07-09T03:22:26.748Z,5.17
2018-07-09T03:24:54.175Z,5.30
2018-07-09T03:27:21.647Z,5.20
2018-07-09T03:29:49.004Z,4.50
2018-07-09T03:32:16.477Z,5.07
2018-07-09T03:34:43.812Z,4.37
2018-07-09T03:37:11.164Z,6.47
2018-07-09T03:39:38.628Z,5.33
2018-07-09T03:42:06.258Z,5.47
2018-07-09T03:44:33.929Z,5.50
2018-07-09T03:47:01.475Z,6.90
2018-07-09T03:49:28.971Z,6.60
2018-07-09T03:51:56.326Z,4.70
2018-07-09T03:54:23.682Z,5.93
2018-07-09T03:56:51.012Z,6.17
2018-07-09T03:59:18.505Z,7.87
2018-07-09T04:01:45.822Z,7.30
2018-07-09T04:04:13.302Z,7.07
2018-07-09T04:06:40.639Z,7.20
2018-07-09T04:09:08.149Z,6.90
2018-07-09T04:11:35.459Z,8.20
2018-07-09T04:14:02.905Z,7.07
2018-07-09T04:16:30.278Z,6.70
2018-07-09T04:18:57.711Z,7.07
2018-07-09T04:21:25.159Z,7.63
2018-07-09T04:23:52.532Z,6.57
2018-07-09T04:26:19.959Z,7.70
2018-07-09T04:28:47.236Z,7.40
2018-07-09T04:31:14.717Z,7.80
2018-07-09T04:33:42.040Z,6.73
2018-07-09T04:36:09.375Z,8.63
2018-07-09T04:38:36.881Z,9.03
2018-07-09T04:41:04.220Z,9.10
2018-07-09T04:43:31.623Z,9.00
2018-07-09T04:45:59.150Z,8.30
2018-07-09T04:48:26.579Z,9.50
2018-07-09T04:50:53.927Z,9.33
2018-07-09T04:53:21.477Z,9.60
2018-07-09T04:55:48.749Z,10.73
2018-07-09T04:58:16.213Z,9.73
2018-07-09T05:00:43.791Z,9.00
2018-07-09T05:03:11.122Z,8.77
2018-07-09T05:05:38.517Z,9.17
2018-07-09T05:08:05.828Z,9.27
2018-07-09T05:10:33.188Z,9.50
2018-07-09T05:13:00.658Z,10.17
2018-07-09T05:15:28.005Z,9.20
2018-07-09T05:17:55.387Z,9.40
2018-07-09T05:20:22.820Z,9.70
2018-07-09T05:22:50.115Z,9.47
2018-07-09T05:25:17.628Z,8.20
2018-07-09T05:27:44.962Z,9.17
2018-07-09T05:30:12.279Z,8.97
2018-07-09T05:32:39.675Z,8.60
2018-07-09T05:35:07.002Z,9.57
2018-07-09T05:37:34.591Z,10.90
2018-07-09T05:40:02.170Z,11.30
2018-07-09T05:42:29.456Z,10.70
2018-07-09T05:44:56.779Z,10.33
2018-07-09T05:47:24.215Z,9.23
2018-07-09T05:49:51.865Z,9.17
2018-07-09T05:52:19.205Z,9.00
2018-07-09T05:54:46.613Z,8.97
2018-07-09T05:57:13.908Z,8.10
2018-07-09T05:59:41.303Z,8.20
2018-07-09T06:02:08.641Z,7.33
2018-07-09T06:04:36.013Z,6.60
2018-07-09T06:07:03.370Z,7.60
2018-07-09T06:09:30.727Z,7.50
2018-07-09T06:11:58.083Z,9.00
2018-07-09T06:14:25.511Z,7.10
2018-07-09T06:16:52.882Z,5.97
2018-07-09T06:19:20.333Z,6.40
2018-07-09T06:21:47.808Z,5.50
2018-07-09T06:24:15.126Z,6.80
2018-07-09T06:26:42.528Z,5.00
2018-07-09T06:29:09.842Z,5.53
2018-07-09T06:31:37.197Z,6.07
2018-07-09T06:34:04.463Z,5.67
2018-07-09T06:36:31.849Z,5.77
2018-07-09T06:38:59.251Z,5.50
2018-07-09T06:41:26.622Z,5.20
2018-07-09T06:43:53.965Z,5.37
2018-07-09T06:46:21.348Z,5.97
2018-07-09T06:48:48.766Z,6.00
2018-07-09T06:51:16.123Z,5.80
2018-07-09T06:53:43.511Z,5.90
2018-07-09T06:56:10.835Z,4.10
2018-07-09T06:58:38.177Z,4.10
2018-07-09T07:01:05.972Z,4.30
2018-07-09T07:03:33.368Z,3.90
2018-07-09T07:06:01.102Z,3.60
2018-07-09T07:08:28.567Z,4.00
2018-07-09T07:10:56.500Z,4.00
2018-07-09T07:13:23.869Z,4.33
2018-07-09T07:15:51.338Z,3.77
2018-07-09T07:18:19.269Z,4.00
2018-07-09T07:20:46.635Z,3.97
2018-07-09T07:23:14.219Z,4.00
2018-07-09T07:25:41.695Z,4.33
2018-07-09T07:28:09.338Z,4.60
2018-07-09T07:30:36.888Z,3.77
2018-07-09T07:33:04.287Z,4.63
2018-07-09T07:35:31.589Z,5.00
2018-07-09T07:37:58.948Z,4.83
2018-07-09T07:40:26.316Z,4.47
2018-07-09T07:42:53.871Z,3.97
2018-07-09T07:45:21.220Z,4.73
2018-07-09T07:47:48.578Z,4.40
2018-07-09T07:50:15.984Z,4.93
2018-07-09T07:52:43.255Z,5.20
2018-07-09T07:55:10.792Z,7.10
2018-07-09T07:57:38.184Z,6.53
2018-07-09T08:00:05.985Z,5.47
2018-07-09T08:02:33.432Z,5.30
2018-07-09T08:05:00.847Z,4.53
2018-07-09T08:07:28.432Z,3.80
2018-07-09T08:09:55.755Z,3.30
2018-07-09T08:14:50.517Z,3.70
2018-07-09T08:17:17.847Z,4.20
2018-07-09T08:19:45.272Z,3.53
2018-07-09T08:22:12.717Z,4.90
2018-07-09T08:24:39.940Z,4.30
2018-07-09T08:27:07.274Z,4.43
2018-07-09T08:29:34.782Z,5.20
2018-07-09T08:32:02.391Z,6.00
2018-07-09T08:34:29.962Z,5.80
2018-07-09T08:36:57.571Z,5.70
2018-07-09T08:39:24.933Z,6.77
2018-07-09T08:41:52.292Z,5.43
2018-07-09T08:44:19.668Z,4.70
2018-07-09T08:46:46.992Z,4.83
2018-07-09T08:49:14.320Z,5.87
2018-07-09T08:51:41.628Z,4.53
2018-07-09T08:54:09.335Z,5.43
2018-07-09T08:56:36.679Z,3.23
2018-07-09T08:59:04.178Z,3.80
2018-07-09T09:01:31.768Z,4.10
2018-07-09T09:03:59.303Z,3.93
2018-07-09T09:06:26.684Z,3.77
2018-07-09T09:08:54.182Z,3.40
2018-07-09T09:11:21.674Z,4.10
2018-07-09T09:13:49.227Z,3.00
2018-07-09T09:16:16.600Z,3.10
2018-07-09T09:18:43.937Z,3.60
2018-07-09T09:21:11.399Z,3.30
2018-07-09T09:23:38.843Z,3.00
2018-07-09T09:26:06.301Z,4.33
2018-07-09T09:28:33.691Z,4.30
2018-07-09T09:31:01.132Z,4.90
2018-07-09T09:33:28.470Z,5.13
2018-07-09T09:35:55.819Z,6.10
2018-07-09T09:38:23.298Z,4.73
2018-07-09T09:40:50.617Z,4.90
2018-07-09T09:43:18.112Z,5.40
2018-07-09T09:45:45.470Z,4.60
2018-07-09T09:48:12.922Z,4.77
2018-07-09T09:50:40.283Z,4.63
2018-07-09T09:53:07.600Z,4.40
2018-07-09T09:55:35.297Z,4.50
2018-07-09T09:58:02.611Z,4.20
2018-07-09T10:00:35.404Z,3.93
2018-07-09T10:03:02.675Z,4.40
2018-07-09T10:05:30.135Z,4.53
2018-07-09T10:07:57.459Z,5.30
2018-07-09T10:10:24.939Z,4.80
2018-07-09T10:12:52.286Z,5.43
2018-07-09T10:15:19.655Z,4.90
2018-07-09T10:17:47.103Z,4.60
2018-07-09T10:20:14.663Z,4.97
2018-07-09T10:22:42.022Z,3.93
2018-07-09T10:25:09.344Z,4.93
2018-07-09T10:27:36.741Z,4.50
2018-07-09T10:30:04.183Z,3.67
2018-07-09T10:32:31.724Z,3.30
2018-07-09T10:34:59.076Z,3.13
2018-07-09T10:37:26.435Z,3.20
2018-07-09T10:39:53.812Z,3.00
2018-07-09T10:42:21.239Z,3.40
2018-07-09T10:44:48.601Z,2.63
2018-07-09T10:47:16.061Z,2.83
2018-07-09T10:49:43.499Z,3.43
2018-07-09T10:52:10.961Z,4.03
2018-07-09T10:54:38.356Z,4.10
2018-07-09T10:57:05.680Z,2.67
2018-07-09T10:59:33.124Z,3.07
2018-07-09T11:02:00.489Z,2.73
2018-07-09T11:04:27.875Z,2.50
2018-07-09T11:06:55.224Z,2.93
2018-07-09T11:09:22.638Z,2.70
2018-07-09T11:11:50.028Z,2.97
2018-07-09T11:14:17.369Z,2.07
2018-07-09T11:16:44.851Z,2.60
2018-07-09T11:19:12.293Z,2.50
2018-07-09T11:21:39.639Z,3.60
2018-07-09T11:24:06.977Z,2.67
2018-07-09T11:26:34.430Z,2.77
2018-07-09T11:29:01.797Z,2.50
2018-07-09T11:31:29.184Z,2.70
2018-07-09T11:33:56.616Z,2.70
2018-07-09T11:36:24.139Z,2.60
2018-07-09T11:38:51.495Z,2.13
2018-07-09T11:41:18.898Z,3.00
2018-07-09T11:43:46.230Z,2.43
2018-07-09T11:46:13.583Z,2.40
2018-07-09T11:48:40.956Z,3.03
2018-07-09T11:51:08.406Z,2.80
2018-07-09T11:53:35.820Z,2.30
2018-07-09T11:56:03.229Z,3.07
2018-07-09T11:58:30.578Z,2.20
2018-07-09T12:00:58.029Z,2.17
2018-07-09T12:03:25.380Z,2.17
2018-07-09T12:05:53.564Z,2.53
2018-07-09T12:08:20.918Z,3.60
2018-07-09T12:10:48.265Z,2.60
2018-07-09T12:13:15.619Z,3.60
2018-07-09T12:15:43.066Z,2.60
2018-07-09T12:18:10.428Z,2.13
2018-07-09T12:20:37.769Z,2.90
2018-07-09T12:23:05.127Z,2.10
2018-07-09T12:25:32.471Z,2.17
2018-07-09T12:27:59.833Z,3.10
2018-07-09T12:30:27.200Z,2.73
2018-07-09T12:32:54.560Z,2.20
2018-07-09T12:35:21.905Z,2.77
2018-07-09T12:37:49.246Z,2.50
2018-07-09T12:40:16.656Z,3.30
2018-07-09T12:42:43.951Z,3.60
2018-07-09T12:45:11.406Z,2.50
2018-07-09T12:47:38.766Z,2.70
2018-07-09T12:50:06.154Z,2.90
2018-07-09T12:52:33.593Z,2.93
2018-07-09T12:55:00.934Z,4.27
2018-07-09T12:57:28.480Z,3.50
2018-07-09T12:59:56.048Z,3.07
2018-07-09T13:02:23.477Z,3.00
2018-07-09T13:04:50.791Z,3.07
2018-07-09T13:07:18.158Z,3.00
2018-07-09T13:09:45.467Z,2.90
2018-07-09T13:12:17.412Z,3.57
2018-07-09T13:14:44.799Z,3.00
2018-07-09T13:17:12.184Z,3.40
2018-07-09T13:19:39.571Z,3.03
2018-07-09T13:22:06.953Z,3.60
2018-07-09T13:24:34.321Z,4.63
2018-07-09T13:27:01.851Z,2.90
2018-07-09T13:29:29.452Z,3.40
2018-07-09T13:31:56.781Z,3.47
2018-07-09T13:34:24.524Z,3.23
2018-07-09T13:36:51.883Z,3.27
2018-07-09T13:39:19.484Z,3.03
2018-07-09T13:41:47.034Z,4.00
2018-07-09T13:44:14.367Z,3.70
2018-07-09T13:46:41.847Z,2.80
2018-07-09T13:49:09.287Z,3.50
2018-07-09T13:51:36.761Z,2.30
2018-07-09T13:54:04.325Z,2.30
2018-07-09T13:56:32.002Z,1.80
2018-07-09T13:58:59.545Z,2.40
2018-07-09T14:04:01.078Z,1.70
2018-07-09T14:06:28.479Z,1.40
2018-07-09T14:08:55.812Z,2.10
2018-07-09T14:11:23.247Z,1.60
2018-07-09T14:13:50.624Z,1.50
2018-07-09T14:16:17.955Z,1.30
2018-07-09T14:18:45.342Z,1.27
2018-07-09T14:21:12.712Z,1.70
2018-07-09T14:23:40.133Z,6.00
2018-07-09T14:26:07.493Z,2.17
2018-07-09T14:28:35.036Z,1.50
2018-07-09T14:31:02.500Z,1.67
2018-07-09T14:33:29.836Z,1.63
2018-07-09T14:35:57.267Z,5.50
2018-07-09T14:38:24.660Z,1.57
2018-07-09T14:40:52.155Z,1.40
2018-07-09T14:43:19.499Z,2.03
2018-07-09T14:45:46.816Z,1.60
2018-07-09T14:48:14.294Z,1.57
2018-07-09T14:50:41.871Z,1.50
2018-07-09T14:53:09.536Z,1.60
2018-07-09T14:55:37.006Z,1.63
2018-07-09T14:58:04.313Z,1.17
2018-07-09T15:00:31.836Z,1.20
2018-07-09T15:02:59.139Z,1.40
2018-07-09T15:05:26.505Z,1.37
2018-07-09T15:07:53.963Z,1.30
2018-07-09T15:10:21.316Z,1.40
2018-07-09T15:12:48.725Z,1.50
2018-07-09T15:15:16.315Z,1.37
2018-07-09T15:17:43.785Z,1.40
2018-07-09T15:20:11.142Z,1.30
2018-07-09T15:22:38.671Z,2.07
2018-07-09T15:25:06.079Z,1.40
2018-07-09T15:27:33.420Z,1.70
2018-07-09T15:30:00.780Z,1.30
2018-07-09T15:32:29.368Z,1.80
2018-07-09T15:34:56.797Z,1.47
2018-07-09T15:37:24.446Z,1.40
2018-07-09T15:39:52.034Z,1.50
2018-07-09T15:42:19.394Z,1.70
2018-07-09T15:44:46.732Z,1.67
2018-07-09T15:47:14.360Z,1.10
2018-07-09T15:49:42.628Z,1.40
2018-07-09T15:52:10.217Z,1.87
2018-07-09T15:54:37.615Z,1.47
2018-07-09T15:57:05.189Z,1.50
2018-07-09T15:59:32.707Z,1.53
2018-07-09T16:02:00.084Z,1.30
2018-07-09T16:04:27.523Z,1.30
2018-07-09T16:06:54.945Z,1.57
2018-07-09T16:09:22.829Z,1.77
2018-07-09T16:11:50.168Z,1.30
2018-07-09T16:14:17.529Z,1.30
2018-07-09T16:16:45.208Z,1.63
2018-07-09T16:19:12.716Z,1.53
2018-07-09T16:21:40.246Z,1.40
2018-07-09T16:24:07.583Z,1.80
2018-07-09T16:26:34.919Z,1.90
2018-07-09T16:29:02.420Z,1.40
2018-07-09T16:31:29.984Z,1.73
2018-07-09T16:33:57.407Z,1.60
2018-07-09T16:36:24.811Z,2.37
2018-07-09T16:38:52.151Z,1.87
2018-07-09T16:41:19.476Z,2.10
2018-07-09T16:43:47.018Z,2.13
2018-07-09T16:46:14.412Z,2.13
2018-07-09T16:48:41.796Z,2.20
2018-07-09T16:51:09.254Z,2.07
2018-07-09T16:53:36.847Z,2.47
2018-07-09T16:56:04.277Z,1.70
2018-07-09T16:58:31.650Z,2.30
2018-07-09T17:00:59.256Z,2.23
2018-07-09T17:03:26.773Z,2.40
2018-07-09T17:05:54.340Z,2.03
2018-07-09T17:08:21.863Z,1.83
2018-07-09T17:10:49.226Z,2.13
2018-07-09T17:13:16.654Z,1.80
2018-07-09T17:15:43.967Z,1.70
2018-07-09T17:18:11.405Z,2.13
2018-07-09T17:20:38.823Z,1.53
2018-07-09T17:23:06.327Z,2.33
2018-07-09T17:25:33.881Z,2.10
2018-07-09T17:28:01.249Z,2.70
2018-07-09T17:30:28.804Z,2.07
2018-07-09T17:32:56.223Z,2.30
2018-07-09T17:35:23.597Z,2.70
2018-07-09T17:37:51.369Z,3.13
2018-07-09T17:40:18.735Z,2.70
2018-07-09T17:42:46.078Z,2.30
2018-07-09T17:45:13.524Z,2.83
2018-07-09T17:47:40.968Z,2.57
2018-07-09T17:50:08.639Z,2.83
2018-07-09T17:52:35.989Z,2.93
2018-07-09T17:55:03.339Z,2.97
2018-07-09T17:57:30.740Z,3.30
2018-07-09T17:59:58.252Z,2.50
2018-07-09T18:02:25.611Z,3.43
2018-07-09T18:04:53.104Z,3.50
2018-07-09T18:07:20.580Z,2.60
2018-07-09T18:09:48.815Z,2.20
2018-07-09T18:12:16.155Z,2.80
2018-07-09T18:14:43.564Z,2.10
2018-07-09T18:17:10.936Z,2.40
2018-07-09T18:19:38.480Z,2.60
2018-07-09T18:22:05.913Z,2.57
2018-07-09T18:24:33.263Z,2.50
2018-07-09T18:27:00.734Z,2.63
2018-07-09T18:29:28.413Z,2.40
2018-07-09T18:31:55.788Z,2.43
2018-07-09T18:34:23.232Z,2.37
2018-07-09T18:36:50.651Z,3.03
2018-07-09T18:39:17.994Z,2.27
2018-07-09T18:41:45.412Z,2.90
2018-07-09T18:44:12.797Z,2.70
2018-07-09T18:46:40.187Z,3.30
2018-07-09T18:49:07.687Z,2.80
2018-07-09T18:51:35.256Z,3.23
2018-07-09T18:54:02.884Z,3.57
2018-07-09T18:56:30.297Z,3.90
2018-07-09T18:58:57.690Z,3.50
2018-07-09T19:01:25.121Z,4.70
2018-07-09T19:03:52.651Z,3.83
2018-07-09T19:06:53.529Z,3.97
2018-07-09T19:09:21.404Z,3.40
2018-07-09T19:11:48.775Z,3.57
2018-07-09T19:14:16.768Z,4.10
2018-07-09T19:16:49.764Z,3.70
2018-07-09T19:19:52.241Z,3.60
2018-07-09T19:22:24.079Z,4.33
2018-07-09T19:24:50.851Z,4.17
2018-07-09T19:27:17.643Z,3.47
2018-07-09T19:29:44.462Z,3.73
2018-07-09T19:32:11.333Z,4.00
2018-07-09T19:34:38.131Z,3.63
2018-07-09T19:37:05.117Z,3.90
2018-07-09T19:39:31.921Z,3.60
2018-07-09T19:41:58.690Z,3.80
2018-07-09T19:44:25.490Z,3.80
2018-07-09T19:46:52.254Z,3.70
2018-07-09T19:49:19.018Z,4.37
2018-07-09T19:51:45.778Z,4.43
2018-07-09T19:54:12.547Z,4.00
2018-07-09T19:56:39.346Z,3.87
2018-07-09T19:59:06.139Z,4.50
2018-07-09T20:01:32.934Z,3.30
2018-07-09T20:03:59.705Z,4.70
2018-07-09T20:06:26.769Z,5.00
2018-07-09T20:08:58.846Z,5.00
2018-07-09T20:11:31.040Z,4.77
2018-07-09T20:14:04.197Z,4.03
2018-07-09T20:16:36.325Z,2.70
2018-07-09T20:19:03.317Z,3.70
2018-07-09T20:21:30.607Z,3.70
2018-07-09T20:23:57.519Z,4.67
2018-07-09T20:26:24.339Z,3.90
2018-07-09T20:28:51.588Z,3.57
2018-07-09T20:31:18.811Z,3.03
2018-07-09T20:33:45.808Z,3.53
2018-07-09T20:36:12.564Z,3.50
2018-07-09T20:38:39.325Z,3.83
2018-07-09T20:41:06.076Z,3.80
2018-07-09T20:43:33.353Z,3.10
2018-07-09T20:46:00.148Z,3.50
2018-07-09T20:48:27.008Z,4.10
2018-07-09T20:50:53.847Z,3.50
2018-07-09T20:53:20.636Z,3.10
2018-07-09T20:55:47.403Z,2.73
2018-07-09T20:58:14.190Z,2.57
2018-07-09T21:00:41.034Z,2.57
2018-07-09T21:03:07.875Z,3.77
2018-07-09T21:05:34.899Z,3.10
2018-07-09T21:08:01.772Z,2.30
2018-07-09T21:10:28.610Z,2.30
2018-07-09T21:12:58.716Z,3.17
2018-07-09T21:15:26.916Z,2.20
2018-07-09T21:17:53.704Z,2.50
2018-07-09T21:20:20.789Z,1.90
2018-07-09T21:22:48.183Z,2.27
2018-07-09T21:25:15.822Z,2.47
2018-07-09T21:27:42.585Z,2.20
2018-07-09T21:30:09.436Z,2.10
2018-07-09T21:32:36.299Z,2.20
2018-07-09T21:35:03.072Z,2.13
2018-07-09T21:37:30.015Z,2.23
2018-07-09T21:39:56.839Z,2.47
2018-07-09T21:42:23.639Z,2.27
2018-07-09T21:44:50.396Z,2.20
2018-07-09T21:47:17.263Z,2.17
2018-07-09T21:49:44.096Z,1.90
2018-07-09T21:52:10.948Z,2.40
2018-07-09T21:54:37.825Z,1.90
2018-07-09T21:57:04.567Z,2.20
2018-07-09T21:59:31.369Z,1.83
2018-07-09T22:01:58.288Z,1.77
2018-07-09T22:04:25.050Z,1.80
2018-07-09T22:06:52.060Z,2.03
2018-07-09T22:09:18.927Z,1.70
2018-07-09T22:11:45.668Z,2.27
2018-07-09T22:14:12.626Z,2.13
2018-07-09T22:16:39.380Z,1.60
2018-07-09T22:19:06.205Z,2.27
2018-07-09T22:21:33.060Z,2.50
2018-07-09T22:23:59.863Z,2.60
2018-07-09T22:26:26.749Z,2.07
2018-07-09T22:28:53.552Z,2.40
2018-07-09T22:31:20.900Z,2.27
2018-07-09T22:33:48.392Z,2.80
2018-07-09T22:36:15.706Z,2.10
2018-07-09T22:38:43.259Z,2.10
2018-07-09T22:41:10.637Z,2.23
2018-07-09T22:43:43.592Z,2.23
2018-07-09T22:46:10.912Z,2.73
2018-07-09T22:48:38.357Z,2.10
2018-07-09T22:51:05.884Z,2.10
2018-07-09T22:53:33.151Z,1.50
2018-07-09T22:56:08.493Z,2.47
2018-07-09T22:58:36.378Z,2.20
2018-07-09T23:01:04.536Z,4.00
2018-07-09T23:03:31.885Z,2.03
2018-07-09T23:05:59.351Z,1.90
2018-07-09T23:08:26.672Z,1.80
2018-07-09T23:11:25.619Z,2.20
2018-07-09T23:14:59.079Z,2.60
2018-07-09T23:17:32.006Z,2.80
2018-07-09T23:20:34.748Z,3.07
2018-07-09T23:23:01.511Z,2.80
2018-07-09T23:25:28.286Z,3.07
2018-07-09T23:27:55.155Z,3.10
2018-07-09T23:30:22.010Z,2.80
2018-07-09T23:32:48.874Z,3.40
2018-07-09T23:35:15.699Z,3.50
2018-07-09T23:37:42.452Z,3.53
2018-07-09T23:40:09.472Z,3.70
2018-07-09T23:42:36.210Z,4.10
2018-07-09T23:45:02.940Z,3.20
2018-07-09T23:47:29.703Z,3.73
2018-07-09T23:49:56.556Z,3.10
2018-07-09T23:52:23.319Z,3.60
2018-07-09T23:54:50.047Z,3.17
2018-07-09T23:57:23.351Z,3.03
2018-07-09T23:59:56.332Z,3.47
